Time;durP1;ratioP1;P1;durP2;ratioP2;P2;SDS_P1;SDS_P2;PMS_P1;PMS_P2;Temp;Humidity;BMP_temperature;BMP_pressure;BME280_temperature;BME280_humidity;BME280_pressure;Samples;Min_cycle;Max_cycle;Signal;HPM_P1;HPM_P2
2022/01/16 00:04:42;;;;;;;21.35;14.25;;;4.20;75.90;;;;;;4971679;28;20494;-72
2022/01/16 00:07:08;;;;;;;24.80;14.87;;;4.20;74.40;;;;;;4987707;28;20919;-73
2022/01/16 00:09:37;;;;;;;25.67;15.43;;;4.10;74.30;;;;;;4975104;28;20392;-74
2022/01/16 00:12:06;;;;;;;25.13;15.75;;;4.10;76.30;;;;;;4974745;28;20785;-77
2022/01/16 00:14:32;;;;;;;25.25;15.27;;;4.10;76.00;;;;;;4967507;28;20416;-74
2022/01/16 00:16:59;;;;;;;27.20;15.50;;;4.10;77.30;;;;;;4966568;28;20403;-75
2022/01/16 00:19:25;;;;;;;26.45;16.23;;;4.10;78.20;;;;;;4976637;28;20400;-75
2022/01/16 00:21:51;;;;;;;26.58;15.95;;;4.00;77.50;;;;;;4975056;28;20407;-75
2022/01/16 00:24:17;;;;;;;28.38;16.98;;;4.10;76.30;;;;;;4975637;28;20841;-74
2022/01/16 00:26:43;;;;;;;25.67;15.70;;;4.10;76.50;;;;;;4978681;28;20460;-74
2022/01/16 00:29:11;;;;;;;25.93;15.90;;;4.10;75.80;;;;;;4977785;28;20408;-75
2022/01/16 00:31:38;;;;;;;25.05;16.55;;;4.10;75.70;;;;;;4978059;28;20408;-75
2022/01/16 00:34:06;;;;;;;26.92;16.85;;;4.10;76.10;;;;;;4980218;28;20395;-77
2022/01/16 00:36:32;;;;;;;25.60;17.15;;;4.00;76.60;;;;;;4987864;28;20854;-76
2022/01/16 00:38:58;;;;;;;28.85;17.55;;;4.00;77.80;;;;;;4979515;28;20404;-73
2022/01/16 00:41:24;;;;;;;29.85;18.60;;;4.00;77.50;;;;;;4976248;28;20515;-75
2022/01/16 00:43:52;;;;;;;26.17;16.92;;;4.10;79.50;;;;;;4965336;28;20456;-73
2022/01/16 00:46:19;;;;;;;23.77;15.35;;;4.10;76.50;;;;;;4982979;28;20399;-75
2022/01/16 00:48:44;;;;;;;25.45;15.88;;;4.20;75.30;;;;;;4994114;28;20394;-74
2022/01/16 00:51:11;;;;;;;29.80;18.02;;;4.20;74.70;;;;;;4993710;28;20401;-73
2022/01/16 00:53:39;;;;;;;28.40;17.60;;;4.20;75.40;;;;;;4976517;28;20889;-74
2022/01/16 00:56:05;;;;;;;33.13;19.52;;;4.20;74.70;;;;;;4965679;28;20421;-73
2022/01/16 00:58:30;;;;;;;35.42;20.85;;;4.20;75.80;;;;;;4973614;28;20384;-73
2022/01/16 01:00:56;;;;;;;31.93;18.13;;;4.30;74.90;;;;;;4970038;28;20480;-74
2022/01/16 01:03:22;;;;;;;27.00;17.00;;;4.20;74.50;;;;;;4968941;28;20917;-74
2022/01/16 01:05:47;;;;;;;31.80;18.73;;;4.20;74.90;;;;;;4974787;28;20396;-74
2022/01/16 01:08:13;;;;;;;27.17;17.90;;;4.20;73.70;;;;;;4974995;28;20392;-73
2022/01/16 01:10:41;;;;;;;29.52;18.15;;;4.20;75.40;;;;;;4965947;28;20491;-74
2022/01/16 01:13:32;;;;;;;32.70;19.60;;;4.20;75.30;;;;;;4972207;28;20916;-73
2022/01/16 01:16:03;;;;;;;30.73;19.13;;;4.20;77.20;;;;;;4973474;28;20825;-73
2022/01/16 01:18:34;;;;;;;33.80;20.33;;;4.20;76.00;;;;;;4974093;28;20419;-74
2022/01/16 01:21:02;;;;;;;33.63;18.67;;;4.10;77.00;;;;;;4973399;28;20388;-74
2022/01/16 01:23:31;;;;;;;39.17;22.25;;;4.10;77.80;;;;;;4971421;28;20404;-74
2022/01/16 01:25:57;;;;;;;36.50;20.45;;;4.20;76.20;;;;;;4973195;28;20436;-74
2022/01/16 01:28:23;;;;;;;37.25;21.00;;;4.20;75.80;;;;;;4973651;28;20878;-74
2022/01/16 01:30:48;;;;;;;35.03;20.67;;;4.20;77.30;;;;;;4974133;28;20392;-74
2022/01/16 01:33:18;;;;;;;38.23;21.80;;;4.30;76.40;;;;;;4974111;28;20404;-74
2022/01/16 01:35:44;;;;;;;39.60;21.17;;;4.20;76.10;;;;;;4977239;28;20816;-73
2022/01/16 01:38:11;;;;;;;34.85;20.90;;;4.20;77.40;;;;;;4969843;28;20409;-74
2022/01/16 01:40:38;;;;;;;36.10;21.53;;;4.20;77.00;;;;;;4977973;28;20396;-74
2022/01/16 01:51:02;;;;;;;33.78;20.30;;;4.20;76.90;;;;;;4968838;28;20477;-74
2022/01/16 01:51:27;;;;;;;36.28;21.35;;;4.10;80.10;;;;;;4977631;28;20453;-74
2022/01/16 01:53:56;;;;;;;35.25;21.98;;;4.20;78.60;;;;;;4988242;28;20412;-73
2022/01/16 01:56:23;;;;;;;38.85;22.48;;;4.20;78.60;;;;;;4987076;28;20443;-73
2022/01/16 01:58:53;;;;;;;36.25;21.63;;;4.20;79.50;;;;;;4981662;28;20731;-74
2022/01/16 02:01:18;;;;;;;37.65;22.88;;;4.20;78.70;;;;;;4975002;28;20953;-74
2022/01/16 02:03:45;;;;;;;38.13;23.00;;;4.30;78.00;;;;;;4973766;28;20475;-75
2022/01/16 02:06:16;;;;;;;36.53;22.35;;;4.30;79.10;;;;;;4976453;28;20411;-74
2022/01/16 02:08:43;;;;;;;41.35;23.30;;;4.40;77.40;;;;;;4972880;28;20388;-74
2022/01/16 02:11:12;;;;;;;39.17;23.15;;;4.40;74.70;;;;;;4973138;28;20400;-74
2022/01/16 02:13:48;;;;;;;48.92;25.42;;;4.30;76.20;;;;;;4972304;28;20400;-73
2022/01/16 02:35:35;;;;;;;60.10;29.87;;;4.50;69.90;;;;;;4975317;28;20900;-74
2022/01/16 02:38:00;;;;;;;59.13;29.15;;;4.40;69.70;;;;;;4974371;28;20542;-74
2022/01/16 02:40:28;;;;;;;57.63;28.90;;;4.40;69.60;;;;;;4974194;28;20439;-75
2022/01/16 02:42:53;;;;;;;65.05;30.80;;;4.40;70.30;;;;;;4974364;28;20955;-73
2022/01/16 02:45:29;;;;;;;64.63;31.23;;;4.40;70.90;;;;;;4975729;28;20483;-73
2022/01/16 02:48:00;;;;;;;58.70;29.50;;;4.30;71.60;;;;;;4993767;28;20418;-73
2022/01/16 02:50:26;;;;;;;60.15;30.52;;;4.40;70.60;;;;;;4992309;28;20480;-73
2022/01/16 02:52:52;;;;;;;58.13;29.50;;;4.40;70.90;;;;;;4964760;28;20479;-72
2022/01/16 02:55:20;;;;;;;59.07;29.23;;;4.40;69.80;;;;;;4973519;28;20415;-74
2022/01/16 02:57:48;;;;;;;58.45;28.67;;;4.40;68.70;;;;;;4972695;28;20467;-73
2022/01/16 03:00:14;;;;;;;56.67;28.88;;;4.40;68.80;;;;;;4971978;28;20396;-74
2022/01/16 03:02:39;;;;;;;62.50;30.70;;;4.40;68.90;;;;;;4971995;28;20419;-74
2022/01/16 03:05:05;;;;;;;62.28;30.92;;;4.30;69.40;;;;;;4963698;28;20964;-73
2022/01/16 03:07:31;;;;;;;61.20;30.38;;;4.30;68.60;;;;;;4971059;28;20412;-73
2022/01/16 03:13:00;;;;;;;57.80;29.52;;;4.40;69.30;;;;;;4971475;28;20403;-73
2022/01/16 03:15:26;;;;;;;58.00;28.87;;;4.40;68.20;;;;;;4968720;28;20410;-72
2022/01/16 03:23:02;;;;;;;63.83;30.48;;;4.40;68.20;;;;;;4962472;28;20441;-74
2022/01/16 03:25:27;;;;;;;63.50;32.20;;;4.30;68.70;;;;;;4974834;28;20404;-74
2022/01/16 03:27:53;;;;;;;66.85;32.08;;;4.30;69.40;;;;;;4970034;28;20422;-73
2022/01/16 03:30:18;;;;;;;59.58;29.92;;;4.30;69.40;;;;;;4970630;28;20920;-73
2022/01/16 03:32:44;;;;;;;63.60;32.20;;;4.30;68.00;;;;;;4971255;28;20822;-73
2022/01/16 03:35:10;;;;;;;63.20;30.00;;;4.30;67.30;;;;;;4971712;28;20511;-73
2022/01/16 03:37:35;;;;;;;53.97;29.88;;;4.30;66.70;;;;;;4972712;28;20475;-74
2022/01/16 03:40:04;;;;;;;55.65;29.15;;;4.30;65.90;;;;;;4967467;28;20420;-73
2022/01/16 03:42:33;;;;;;;55.20;28.20;;;4.20;66.60;;;;;;4967336;28;20396;-73
2022/01/16 03:44:59;;;;;;;53.35;28.67;;;4.20;66.60;;;;;;4966953;28;20400;-73
2022/01/16 03:47:25;;;;;;;53.03;28.30;;;4.20;66.40;;;;;;4991834;28;20436;-73
2022/01/16 03:49:50;;;;;;;58.72;30.58;;;4.20;67.40;;;;;;4994259;28;20390;-73
2022/01/16 03:52:16;;;;;;;57.90;31.10;;;4.20;68.00;;;;;;4974362;28;20436;-73
2022/01/16 03:54:42;;;;;;;65.90;32.10;;;4.10;68.90;;;;;;4974141;28;20412;-73
2022/01/16 03:57:07;;;;;;;66.47;33.07;;;4.00;70.00;;;;;;4974412;28;20478;-73
2022/01/16 03:59:33;;;;;;;66.77;32.80;;;4.10;70.70;;;;;;4974529;28;20471;-73
2022/01/16 04:01:59;;;;;;;73.35;35.67;;;4.10;69.90;;;;;;4975146;28;20399;-74
2022/01/16 04:04:25;;;;;;;73.90;37.55;;;4.10;69.10;;;;;;4973915;28;20411;-74
2022/01/16 04:06:51;;;;;;;71.97;35.97;;;4.10;69.60;;;;;;4974577;28;20431;-74
2022/01/16 04:09:16;;;;;;;77.50;35.65;;;4.10;69.80;;;;;;4975047;28;20415;-73
2022/01/16 04:11:50;;;;;;;79.53;37.53;;;4.00;70.70;;;;;;4974722;28;20396;-74
2022/01/16 04:14:22;;;;;;;87.35;38.33;;;4.10;70.80;;;;;;4974331;28;20462;-73
2022/01/16 04:16:48;;;;;;;84.38;39.25;;;4.10;71.00;;;;;;4968419;28;20421;-73
2022/01/16 04:19:14;;;;;;;85.55;38.15;;;4.10;73.00;;;;;;4972368;28;20388;-72
2022/01/16 04:21:39;;;;;;;84.13;39.10;;;4.10;71.80;;;;;;4973761;28;20446;-74
2022/01/16 04:24:05;;;;;;;84.07;39.17;;;4.10;72.90;;;;;;4968245;28;20895;-72
2022/01/16 04:26:31;;;;;;;87.53;39.10;;;4.10;72.20;;;;;;4975547;28;20442;-73
2022/01/16 04:28:56;;;;;;;83.63;40.90;;;4.10;72.80;;;;;;4980271;28;20400;-72
2022/01/16 04:31:22;;;;;;;84.22;40.10;;;4.10;72.50;;;;;;4984611;28;20400;-75
2022/01/16 04:33:48;;;;;;;84.55;39.75;;;4.10;72.80;;;;;;4979627;28;20440;-74
2022/01/16 04:36:14;;;;;;;79.88;39.05;;;4.20;72.20;;;;;;4976464;28;20416;-74
2022/01/16 04:38:46;;;;;;;88.72;40.00;;;4.20;72.80;;;;;;4975936;28;20487;-74
2022/01/16 04:43:58;;;;;;;85.00;39.10;;;4.20;73.40;;;;;;4975431;28;20477;-74
2022/01/16 04:46:28;;;;;;;85.65;40.35;;;4.30;73.20;;;;;;4984732;28;20384;-74
2022/01/16 04:48:56;;;;;;;88.88;40.53;;;4.30;71.40;;;;;;4985325;28;20408;-74
2022/01/16 04:51:22;;;;;;;91.47;38.92;;;4.30;73.10;;;;;;4966388;28;20402;-74
2022/01/16 04:53:48;;;;;;;94.90;40.70;;;4.40;71.40;;;;;;4978670;28;20423;-74
2022/01/16 04:56:14;;;;;;;89.72;40.70;;;4.40;72.00;;;;;;4988971;28;20404;-74
2022/01/16 04:58:41;;;;;;;92.33;41.53;;;4.40;72.40;;;;;;4983492;28;20388;-73
2022/01/16 05:01:07;;;;;;;99.80;41.35;;;4.30;72.90;;;;;;4972328;28;20443;-74
2022/01/16 05:03:33;;;;;;;97.45;42.45;;;4.40;73.70;;;;;;4965276;28;20479;-74
2022/01/16 05:06:00;;;;;;;85.47;41.72;;;4.40;72.90;;;;;;4964235;28;20419;-74
2022/01/16 05:08:26;;;;;;;91.30;41.58;;;4.50;70.70;;;;;;4974669;28;20399;-73
2022/01/16 05:10:54;;;;;;;90.47;41.45;;;4.50;69.90;;;;;;4973883;28;20384;-74
2022/01/16 05:18:43;;;;;;;87.75;41.63;;;4.60;69.20;;;;;;4973266;28;20435;-74
2022/01/16 05:21:11;;;;;;;91.77;41.10;;;4.70;67.90;;;;;;4973428;28;20380;-73
2022/01/16 05:23:37;;;;;;;87.30;40.95;;;4.70;68.00;;;;;;4973071;28;20380;-73
2022/01/16 05:26:04;;;;;;;90.05;42.03;;;4.70;67.40;;;;;;4972775;28;20466;-73
2022/01/16 05:28:29;;;;;;;82.43;40.17;;;4.70;66.60;;;;;;4973667;28;20400;-73
2022/01/16 05:30:55;;;;;;;88.47;41.13;;;4.70;67.90;;;;;;4973081;28;20505;-74
2022/01/16 05:33:21;;;;;;;93.57;41.65;;;4.70;67.70;;;;;;4971965;28;20467;-72
2022/01/16 05:35:47;;;;;;;93.60;41.78;;;4.70;66.70;;;;;;4971520;28;20419;-73
2022/01/16 05:38:12;;;;;;;84.75;41.22;;;4.80;68.10;;;;;;4963917;28;20889;-74
2022/01/16 05:40:38;;;;;;;88.00;41.10;;;4.80;67.50;;;;;;4971789;28;20503;-72
2022/01/16 05:43:05;;;;;;;84.38;40.75;;;4.80;67.10;;;;;;4972507;28;20396;-75
2022/01/16 05:45:31;;;;;;;92.07;40.80;;;4.80;66.50;;;;;;4973976;28;21011;-74
2022/01/16 05:47:57;;;;;;;81.95;39.90;;;4.70;66.40;;;;;;4991872;28;20409;-73
2022/01/16 05:50:23;;;;;;;88.90;40.63;;;4.70;66.60;;;;;;4969372;28;20410;-73
2022/01/16 05:52:49;;;;;;;95.82;42.40;;;4.60;67.30;;;;;;4972672;28;20404;-74
2022/01/16 05:55:16;;;;;;;86.72;41.53;;;4.60;68.20;;;;;;4972717;28;20416;-75
2022/01/16 05:57:43;;;;;;;86.53;43.03;;;4.60;68.60;;;;;;4968402;28;20397;-73
2022/01/16 06:00:11;;;;;;;91.88;41.88;;;4.60;68.30;;;;;;4973083;28;20495;-73
2022/01/16 06:02:37;;;;;;;95.53;41.80;;;4.70;68.20;;;;;;4966775;28;20545;-76
2022/01/16 06:05:04;;;;;;;91.50;42.72;;;4.70;68.80;;;;;;4974034;28;20388;-74
2022/01/16 06:07:29;;;;;;;89.90;42.42;;;4.70;68.90;;;;;;4974998;28;20427;-73
2022/01/16 06:09:55;;;;;;;84.47;41.70;;;4.70;70.30;;;;;;4978024;28;20415;-73
2022/01/16 06:12:21;;;;;;;91.53;43.10;;;4.70;67.90;;;;;;4978421;28;20393;-74
2022/01/16 06:14:47;;;;;;;93.53;42.30;;;4.80;67.50;;;;;;4964058;28;20423;-74
2022/01/16 06:17:13;;;;;;;88.47;41.88;;;4.80;67.20;;;;;;4972178;28;20388;-74
2022/01/16 06:19:38;;;;;;;78.72;40.28;;;4.80;65.30;;;;;;4965112;28;20398;-74
2022/01/16 06:22:05;;;;;;;91.03;42.37;;;4.80;66.40;;;;;;4951648;29;20389;-73
2022/01/16 06:24:30;;;;;;;87.22;42.92;;;4.80;66.80;;;;;;4966095;28;20407;-74
2022/01/16 06:26:56;;;;;;;89.57;42.83;;;4.80;66.60;;;;;;4963547;28;20411;-73
2022/01/16 06:29:22;;;;;;;89.67;41.70;;;4.80;65.00;;;;;;4972196;28;20394;-73
2022/01/16 06:31:47;;;;;;;89.18;42.65;;;4.90;64.60;;;;;;4972123;28;20396;-74
2022/01/16 06:34:13;;;;;;;88.68;42.47;;;4.90;64.70;;;;;;4972135;28;20408;-73
2022/01/16 06:36:39;;;;;;;93.40;42.85;;;4.80;65.10;;;;;;4971365;28;20419;-74
2022/01/16 06:39:09;;;;;;;93.28;42.70;;;4.90;65.20;;;;;;4961417;28;20874;-73
2022/01/16 06:41:36;;;;;;;86.80;41.75;;;4.90;63.30;;;;;;4972161;28;20757;-74
2022/01/16 06:44:02;;;;;;;85.47;43.17;;;4.90;64.10;;;;;;4972158;28;20749;-74
2022/01/16 06:46:28;;;;;;;88.28;42.78;;;5.00;62.20;;;;;;4968870;28;20413;-73
2022/01/16 06:48:54;;;;;;;89.45;43.03;;;5.00;62.10;;;;;;4967095;28;20796;-73
2022/01/16 06:51:20;;;;;;;87.68;43.40;;;5.00;62.80;;;;;;4971508;28;20737;-73
2022/01/16 06:53:47;;;;;;;84.07;43.03;;;4.90;63.90;;;;;;4969484;28;20428;-73
2022/01/16 06:56:15;;;;;;;87.20;44.28;;;4.90;63.70;;;;;;4970401;28;20416;-73
2022/01/16 06:58:40;;;;;;;92.72;42.75;;;5.00;64.20;;;;;;4966253;28;20417;-73
2022/01/16 07:01:06;;;;;;;90.10;44.50;;;5.10;63.10;;;;;;4964675;28;20398;-74
2022/01/16 07:03:32;;;;;;;87.35;44.47;;;5.00;62.20;;;;;;4951498;29;20907;-74
2022/01/16 07:05:59;;;;;;;87.30;43.20;;;5.00;63.30;;;;;;4958640;28;20416;-75
2022/01/16 07:08:26;;;;;;;87.95;42.47;;;5.00;63.50;;;;;;4972908;28;20523;-74
2022/01/16 07:10:53;;;;;;;89.25;42.17;;;5.00;64.00;;;;;;4972086;28;20399;-74
2022/01/16 07:13:21;;;;;;;87.22;42.45;;;5.00;62.60;;;;;;4964904;28;20401;-74
2022/01/16 07:15:47;;;;;;;84.45;42.13;;;5.00;63.40;;;;;;4975316;28;20420;-74
2022/01/16 07:18:13;;;;;;;82.63;41.45;;;5.00;64.00;;;;;;4975463;28;20447;-75
2022/01/16 07:20:38;;;;;;;84.10;42.78;;;5.10;63.60;;;;;;4965956;28;20396;-73
2022/01/16 07:23:04;;;;;;;85.47;42.63;;;5.10;62.90;;;;;;4975587;28;20387;-74
2022/01/16 07:25:30;;;;;;;84.30;42.80;;;5.10;63.30;;;;;;4974580;28;20389;-73
2022/01/16 07:27:55;;;;;;;88.97;43.17;;;5.10;62.00;;;;;;4967083;28;20438;-75
2022/01/16 07:30:22;;;;;;;87.00;43.78;;;5.10;63.30;;;;;;4974503;28;20411;-73
2022/01/16 07:32:47;;;;;;;83.80;42.85;;;5.10;63.80;;;;;;4974020;28;20408;-74
2022/01/16 07:35:13;;;;;;;87.70;43.40;;;5.10;63.30;;;;;;4975035;28;20824;-74
2022/01/16 07:37:39;;;;;;;81.37;42.70;;;5.10;63.30;;;;;;4970405;28;20405;-74
2022/01/16 07:40:05;;;;;;;80.93;42.25;;;5.20;62.90;;;;;;4971461;28;20921;-74
2022/01/16 07:42:31;;;;;;;91.10;43.75;;;5.10;63.00;;;;;;4965986;28;20408;-74
2022/01/16 07:44:56;;;;;;;82.03;41.38;;;5.20;63.80;;;;;;4967758;28;20396;-73
2022/01/16 07:47:24;;;;;;;82.63;41.97;;;5.20;62.90;;;;;;4993776;28;20391;-74
2022/01/16 07:49:49;;;;;;;81.07;41.50;;;5.30;63.20;;;;;;4991827;28;20415;-73
2022/01/16 07:52:15;;;;;;;80.05;41.58;;;5.30;61.30;;;;;;4977382;28;20404;-74
2022/01/16 07:54:40;;;;;;;80.60;41.38;;;5.40;61.30;;;;;;4972130;28;20492;-74
2022/01/16 07:57:06;;;;;;;85.18;43.30;;;5.30;61.60;;;;;;4977386;28;20389;-73
2022/01/16 07:59:31;;;;;;;86.43;42.38;;;5.30;62.20;;;;;;4991380;28;21959;-72
2022/01/16 08:01:57;;;;;;;84.85;41.30;;;5.30;62.90;;;;;;4978570;28;20409;-75
2022/01/16 08:04:23;;;;;;;76.18;40.60;;;5.40;62.00;;;;;;4973914;28;20384;-72
2022/01/16 08:06:48;;;;;;;83.60;42.57;;;5.40;62.50;;;;;;4974200;28;20411;-74
2022/01/16 08:09:14;;;;;;;83.47;41.87;;;5.40;62.70;;;;;;4972275;28;20404;-73
2022/01/16 08:11:39;;;;;;;83.43;41.80;;;5.30;62.30;;;;;;4973300;28;20450;-77
2022/01/16 08:14:05;;;;;;;84.47;43.63;;;5.30;62.60;;;;;;4967323;28;20748;-73
2022/01/16 08:16:30;;;;;;;78.00;42.40;;;5.30;63.90;;;;;;4980262;28;20917;-73
2022/01/16 08:18:56;;;;;;;86.73;43.57;;;5.30;64.00;;;;;;4974314;28;20400;-73
2022/01/16 08:21:21;;;;;;;80.60;41.03;;;5.30;63.60;;;;;;4974213;28;20881;-75
2022/01/16 08:23:47;;;;;;;81.60;42.20;;;5.40;63.40;;;;;;4974020;28;20455;-73
2022/01/16 08:26:13;;;;;;;86.40;44.70;;;5.30;64.50;;;;;;4965009;28;20850;-74
2022/01/16 08:28:38;;;;;;;87.65;42.78;;;5.40;63.50;;;;;;4969113;28;20494;-74
2022/01/16 08:31:04;;;;;;;84.07;42.63;;;5.50;62.90;;;;;;4969148;28;20424;-75
2022/01/16 08:33:30;;;;;;;87.33;42.80;;;5.40;63.60;;;;;;4974158;28;20408;-75
2022/01/16 08:35:55;;;;;;;87.57;42.00;;;5.60;62.40;;;;;;4975036;28;20412;-75
2022/01/16 08:38:22;;;;;;;88.30;43.33;;;5.60;62.60;;;;;;4973557;28;20396;-75
2022/01/16 08:40:48;;;;;;;88.70;43.65;;;5.50;63.20;;;;;;4973565;28;20400;-74
2022/01/16 08:43:13;;;;;;;81.93;42.35;;;5.50;63.80;;;;;;4975143;28;20485;-75
2022/01/16 08:45:40;;;;;;;87.40;43.08;;;5.60;63.50;;;;;;4975211;28;20455;-75
2022/01/16 08:48:08;;;;;;;80.83;42.20;;;5.60;61.70;;;;;;4974425;28;20408;-74
2022/01/16 08:50:34;;;;;;;89.50;41.78;;;5.70;61.90;;;;;;4973470;28;20408;-73
2022/01/16 08:53:00;;;;;;;77.38;39.72;;;5.80;60.50;;;;;;4978197;28;20420;-73
2022/01/16 08:55:26;;;;;;;79.55;41.00;;;5.80;60.10;;;;;;4985075;28;20422;-74
2022/01/16 08:57:52;;;;;;;84.32;41.55;;;5.90;59.10;;;;;;4981258;28;21161;-74
2022/01/16 09:00:18;;;;;;;84.22;42.30;;;5.80;59.10;;;;;;4979349;28;20491;-74
2022/01/16 09:02:43;;;;;;;83.05;41.97;;;5.70;60.50;;;;;;4970538;28;20401;-73
2022/01/16 09:05:10;;;;;;;91.68;42.80;;;5.70;60.10;;;;;;4971600;28;20423;-72
2022/01/16 09:07:36;;;;;;;82.10;41.50;;;5.70;61.30;;;;;;4967295;28;20901;-73
2022/01/16 09:10:02;;;;;;;83.17;41.67;;;5.70;61.40;;;;;;4973980;28;20395;-75
2022/01/16 09:12:29;;;;;;;82.47;43.08;;;5.70;60.20;;;;;;4973607;28;20410;-74
2022/01/16 09:14:55;;;;;;;80.18;40.08;;;5.70;61.10;;;;;;4975391;28;20528;-73
2022/01/16 09:17:21;;;;;;;78.60;39.78;;;5.70;60.50;;;;;;4973386;28;20404;-72
2022/01/16 09:19:47;;;;;;;78.10;39.40;;;5.80;59.00;;;;;;4973010;28;20400;-73
2022/01/16 09:22:13;;;;;;;76.70;37.63;;;5.80;60.00;;;;;;4974494;28;20392;-76
2022/01/16 09:24:38;;;;;;;79.60;39.10;;;5.80;58.60;;;;;;4974295;28;20504;-72
2022/01/16 09:27:04;;;;;;;82.23;39.20;;;5.90;58.40;;;;;;4971285;28;20396;-73
2022/01/16 09:29:30;;;;;;;81.55;39.70;;;5.90;59.10;;;;;;4970590;28;20435;-74
2022/01/16 09:31:55;;;;;;;84.40;39.35;;;6.00;57.10;;;;;;4982518;28;20400;-74
2022/01/16 09:34:21;;;;;;;82.47;40.00;;;5.90;58.00;;;;;;4984543;28;20882;-75
2022/01/16 09:36:47;;;;;;;83.77;39.73;;;6.00;57.70;;;;;;4973662;28;20723;-75
2022/01/16 09:39:12;;;;;;;90.47;39.83;;;6.00;56.90;;;;;;4973480;28;20430;-74
2022/01/16 09:41:40;;;;;;;77.97;37.60;;;6.10;55.90;;;;;;4971795;28;20758;-74
2022/01/16 09:44:06;;;;;;;80.18;37.83;;;6.10;55.20;;;;;;4972122;28;20396;-74
2022/01/16 09:46:31;;;;;;;77.47;37.67;;;6.10;55.20;;;;;;4965195;28;20839;-75
2022/01/16 09:48:57;;;;;;;77.83;37.27;;;6.20;55.00;;;;;;4972931;28;20384;-75
2022/01/16 09:51:23;;;;;;;84.27;39.17;;;6.20;55.10;;;;;;4972529;28;20431;-75
2022/01/16 09:53:49;;;;;;;83.57;38.28;;;6.30;54.20;;;;;;4972387;28;20408;-75
2022/01/16 09:56:15;;;;;;;77.25;37.70;;;6.30;53.70;;;;;;4970907;28;20416;-76
2022/01/16 09:58:41;;;;;;;77.90;38.92;;;6.30;54.90;;;;;;4966669;28;20753;-74
2022/01/16 10:01:07;;;;;;;78.63;36.67;;;6.30;54.60;;;;;;4961819;28;20403;-74
2022/01/16 10:03:40;;;;;;;71.87;34.73;;;6.40;53.50;;;;;;4973058;28;20396;-75
2022/01/16 10:06:11;;;;;;;70.53;36.20;;;6.50;51.80;;;;;;4971299;28;20400;-75
2022/01/16 10:08:39;;;;;;;73.30;35.17;;;6.50;52.60;;;;;;4966030;28;20427;-75
2022/01/16 10:11:30;;;;;;;76.78;37.58;;;6.50;51.70;;;;;;4972512;28;20505;-74
2022/01/16 10:14:22;;;;;;;75.38;36.08;;;6.50;52.00;;;;;;4967907;28;20431;-75
2022/01/16 10:16:49;;;;;;;72.60;35.95;;;6.40;52.70;;;;;;4969326;28;20408;-74
2022/01/16 10:19:21;;;;;;;75.53;36.50;;;6.40;53.20;;;;;;4971609;28;20439;-75
2022/01/16 10:21:47;;;;;;;72.77;36.30;;;6.30;54.60;;;;;;4972868;28;20377;-75
2022/01/16 10:24:29;;;;;;;78.10;37.55;;;6.30;55.00;;;;;;4972203;28;20770;-75
2022/01/16 10:27:07;;;;;;;78.22;36.80;;;6.20;55.90;;;;;;4972592;28;20404;-76
2022/01/16 10:29:35;;;;;;;71.78;35.92;;;6.30;56.20;;;;;;4973374;28;20419;-75
2022/01/16 10:32:31;;;;;;;77.72;36.42;;;6.30;55.10;;;;;;4959287;28;20414;-76
2022/01/16 10:35:14;;;;;;;76.53;36.03;;;6.40;55.00;;;;;;4960931;28;20753;-75
2022/01/16 10:37:45;;;;;;;77.88;36.55;;;6.40;56.30;;;;;;4981389;28;20397;-73
2022/01/16 10:40:15;;;;;;;77.88;36.53;;;6.30;56.50;;;;;;4980553;28;20411;-73
2022/01/16 10:42:48;;;;;;;78.95;36.45;;;6.40;56.10;;;;;;4979345;28;20388;-75
2022/01/16 10:45:15;;;;;;;76.32;37.17;;;6.30;56.30;;;;;;4973455;28;20396;-73
2022/01/16 10:47:47;;;;;;;80.35;37.38;;;6.20;57.50;;;;;;4980810;28;20747;-76
2022/01/16 10:50:22;;;;;;;85.82;39.33;;;6.20;58.80;;;;;;4976237;28;20407;-76
2022/01/16 10:52:55;;;;;;;86.90;39.45;;;6.20;59.30;;;;;;4970553;28;20737;-75
2022/01/16 10:55:44;;;;;;;89.47;39.53;;;6.10;60.00;;;;;;4980246;28;20573;-75
2022/01/16 10:58:18;;;;;;;94.55;40.80;;;6.10;60.30;;;;;;4995871;28;20483;-77
2022/01/16 11:01:00;;;;;;;85.90;39.10;;;6.20;62.00;;;;;;4987477;28;20423;-74
2022/01/16 11:03:27;;;;;;;88.90;38.63;;;6.20;60.40;;;;;;4991891;28;20392;-75
2022/01/16 11:05:54;;;;;;;92.18;40.65;;;6.30;59.60;;;;;;4980227;28;20408;-74
2022/01/16 11:08:25;;;;;;;86.03;39.70;;;6.30;59.60;;;;;;4974661;28;20399;-74
2022/01/16 11:10:56;;;;;;;94.38;40.05;;;6.30;59.60;;;;;;4975666;28;20779;-75
2022/01/16 11:13:29;;;;;;;90.75;39.35;;;6.30;59.80;;;;;;4975748;28;20404;-74
2022/01/16 11:15:58;;;;;;;91.70;39.53;;;6.40;59.20;;;;;;4975748;28;20773;-75
2022/01/16 11:18:25;;;;;;;93.05;40.20;;;6.40;59.20;;;;;;4975787;28;20377;-74
2022/01/16 11:21:07;;;;;;;110.40;42.47;;;6.30;59.60;;;;;;4963593;28;20791;-74
2022/01/16 11:23:48;;;;;;;92.15;39.05;;;6.40;60.00;;;;;;4975334;28;20881;-75
2022/01/16 11:26:17;;;;;;;99.90;41.05;;;6.40;59.60;;;;;;4974831;28;20400;-76
2022/01/16 11:28:43;;;;;;;92.97;41.38;;;6.40;59.40;;;;;;4968994;28;20451;-75
2022/01/16 11:31:11;;;;;;;98.27;41.60;;;6.40;59.60;;;;;;4975109;28;20503;-76
2022/01/16 11:33:38;;;;;;;92.50;39.20;;;6.50;59.50;;;;;;4968433;28;20414;-73
2022/01/16 11:36:13;;;;;;;86.07;38.38;;;6.60;59.40;;;;;;4975811;28;20407;-75
2022/01/16 11:38:52;;;;;;;95.85;41.15;;;6.60;58.50;;;;;;4989694;28;20404;-74
2022/01/16 11:41:31;;;;;;;97.40;41.00;;;6.60;58.40;;;;;;4976692;28;20781;-76
2022/01/16 11:43:57;;;;;;;91.10;41.03;;;6.80;58.20;;;;;;4975321;28;20423;-75
2022/01/16 11:46:28;;;;;;;95.80;40.17;;;6.90;56.50;;;;;;4975521;28;20398;-74
2022/01/16 11:49:03;;;;;;;99.18;41.92;;;6.90;56.80;;;;;;4967152;28;20491;-75
2022/01/16 11:51:39;;;;;;;94.40;38.93;;;7.00;55.80;;;;;;4974831;28;20968;-75
2022/01/16 11:54:33;;;;;;;90.65;39.83;;;7.10;55.40;;;;;;4974661;28;20437;-74
2022/01/16 11:57:22;;;;;;;92.95;40.03;;;7.20;54.30;;;;;;4971541;28;20498;-74
2022/01/16 11:59:50;;;;;;;88.05;38.75;;;7.40;51.80;;;;;;4980601;28;20400;-74
2022/01/16 12:02:19;;;;;;;89.70;41.17;;;7.40;51.00;;;;;;4971992;28;20394;-75
2022/01/16 12:04:44;;;;;;;90.40;38.60;;;7.40;51.50;;;;;;4982978;28;20399;-75
2022/01/16 12:07:13;;;;;;;92.70;41.17;;;7.30;51.40;;;;;;4980203;28;20408;-74
2022/01/16 12:12:24;;;;;;;86.07;37.75;;;7.30;53.10;;;;;;4976899;28;20391;-75
2022/01/16 12:15:06;;;;;;;82.47;36.97;;;7.30;52.20;;;;;;4967311;28;20508;-76
2022/01/16 12:17:33;;;;;;;87.65;38.40;;;7.20;52.40;;;;;;4966992;28;20468;-76
2022/01/16 12:20:11;;;;;;;77.30;34.07;;;7.20;51.80;;;;;;4981860;28;20484;-75
2022/01/16 12:23:05;;;;;;;75.15;33.22;;;7.10;51.10;;;;;;4977001;28;20399;-76
2022/01/16 12:25:36;;;;;;;80.43;35.20;;;7.00;51.70;;;;;;4974340;28;20756;-76
2022/01/16 12:28:06;;;;;;;80.10;34.35;;;7.10;51.90;;;;;;4968467;28;20397;-75
2022/01/16 12:30:41;;;;;;;76.22;34.08;;;7.10;51.20;;;;;;4975108;28;20411;-75
2022/01/16 12:33:16;;;;;;;69.32;32.03;;;7.20;50.80;;;;;;4975382;28;20407;-75
2022/01/16 12:35:42;;;;;;;76.95;33.50;;;7.30;50.60;;;;;;4972793;28;20435;-75
2022/01/16 12:38:10;;;;;;;73.73;32.13;;;7.30;50.50;;;;;;4974882;28;20430;-76
2022/01/16 12:40:38;;;;;;;74.05;31.80;;;7.20;50.10;;;;;;4974405;28;20423;-73
2022/01/16 12:43:08;;;;;;;70.22;31.63;;;7.20;51.20;;;;;;4974661;28;20388;-74
2022/01/16 12:45:39;;;;;;;63.70;29.83;;;7.40;50.50;;;;;;4973827;28;20403;-74
2022/01/16 12:48:06;;;;;;;66.65;30.25;;;7.50;48.40;;;;;;4966837;28;20391;-74
2022/01/16 12:50:32;;;;;;;67.35;29.25;;;7.50;48.90;;;;;;4974120;28;20409;-74
2022/01/16 12:52:58;;;;;;;78.37;30.00;;;7.50;48.60;;;;;;4971498;28;20522;-74
2022/01/16 12:55:31;;;;;;;61.50;27.30;;;7.60;48.00;;;;;;4961881;28;20738;-76
2022/01/16 12:58:18;;;;;;;59.03;28.13;;;7.70;46.20;;;;;;4973179;28;20455;-74
2022/01/16 13:01:02;;;;;;;63.53;29.70;;;7.50;47.70;;;;;;4963838;28;20392;-75
2022/01/16 13:03:29;;;;;;;61.88;27.63;;;7.50;48.70;;;;;;4973024;28;20389;-76
2022/01/16 13:06:19;;;;;;;62.15;29.23;;;7.50;47.90;;;;;;4974499;28;20389;-73
2022/01/16 13:09:08;;;;;;;61.37;28.63;;;7.60;48.10;;;;;;4974183;28;20922;-75
2022/01/16 13:11:48;;;;;;;61.23;27.07;;;7.50;46.40;;;;;;4969127;28;20521;-75
2022/01/16 13:14:19;;;;;;;61.33;28.25;;;7.40;46.40;;;;;;4967069;28;20463;-75
2022/01/16 13:16:46;;;;;;;56.72;27.27;;;7.20;48.40;;;;;;4969018;28;20576;-76
2022/01/16 13:19:19;;;;;;;60.38;29.00;;;7.10;49.30;;;;;;4977975;28;20428;-74
2022/01/16 13:21:57;;;;;;;59.63;28.05;;;7.10;49.30;;;;;;4988121;28;20420;-75
2022/01/16 13:24:35;;;;;;;57.45;27.90;;;7.10;49.10;;;;;;4981675;28;20858;-75
2022/01/16 13:27:04;;;;;;;60.42;28.70;;;7.10;48.60;;;;;;4965860;28;20468;-75
2022/01/16 13:29:29;;;;;;;61.45;27.70;;;7.10;49.50;;;;;;4965276;28;20958;-75